Time;durP1;ratioP1;P1;durP2;ratioP2;P2;SDS_P1;SDS_P2;PMS_P1;PMS_P2;Temp;Humidity;BMP_temperature;BMP_pressure;BME280_temperature;BME280_humidity;BME280_pressure;Samples;Min_cycle;Max_cycle;Signal;HPM_P1;HPM_P2
2023/07/04 00:02:22;;;;;;;6.38;1.42;;;13.10;99.90;;;;;;4988799;28;20057;-79
2023/07/04 00:05:09;;;;;;;8.65;1.80;;;13.00;99.90;;;;;;4988067;28;20066;-78
2023/07/04 00:07:56;;;;;;;6.03;1.52;;;12.90;99.90;;;;;;4989502;28;20145;-80
2023/07/04 00:10:43;;;;;;;10.55;2.15;;;12.80;99.90;;;;;;4976890;28;20145;-78
2023/07/04 00:13:30;;;;;;;9.95;1.50;;;12.70;99.90;;;;;;4988621;28;20056;-78
2023/07/04 00:16:17;;;;;;;11.13;2.53;;;12.70;99.90;;;;;;4989785;28;20043;-79
2023/07/04 00:19:04;;;;;;;9.68;1.75;;;12.60;99.90;;;;;;4989808;28;20124;-78
2023/07/04 00:21:51;;;;;;;8.00;2.08;;;12.60;99.90;;;;;;4991321;28;20069;-79
2023/07/04 00:24:37;;;;;;;9.43;2.83;;;12.60;99.90;;;;;;4991301;28;20093;-79
2023/07/04 00:27:23;;;;;;;7.60;2.28;;;12.60;99.90;;;;;;4987990;28;20133;-78
2023/07/04 00:30:12;;;;;;;7.43;1.95;;;12.60;99.90;;;;;;4989652;28;20072;-79
2023/07/04 00:32:59;;;;;;;9.07;2.00;;;12.60;99.90;;;;;;4989656;28;20060;-79
2023/07/04 00:35:45;;;;;;;6.85;2.13;;;12.50;99.90;;;;;;4988091;28;20723;-78
2023/07/04 00:38:33;;;;;;;8.20;1.90;;;12.50;99.90;;;;;;4991506;28;20054;-78
2023/07/04 00:41:22;;;;;;;11.68;2.38;;;12.50;99.90;;;;;;4989922;28;20046;-78
2023/07/04 00:44:23;;;;;;;9.90;2.20;;;12.50;99.90;;;;;;4989211;28;20176;-78
2023/07/04 00:47:21;;;;;;;11.35;2.25;;;12.50;99.90;;;;;;4992081;28;20057;-77
2023/07/04 00:50:09;;;;;;;10.25;2.83;;;12.50;99.90;;;;;;4993706;28;20097;-78
2023/07/04 00:52:59;;;;;;;8.13;2.10;;;12.50;99.90;;;;;;4994879;28;20050;-79
2023/07/04 00:55:48;;;;;;;7.60;2.30;;;12.50;99.90;;;;;;4995573;28;20058;-78
2023/07/04 00:58:34;;;;;;;9.25;2.38;;;12.50;99.90;;;;;;4992058;28;20054;-78
2023/07/04 01:01:20;;;;;;;10.07;2.50;;;12.50;99.90;;;;;;4994203;28;20514;-78
2023/07/04 01:04:07;;;;;;;13.40;2.50;;;12.40;99.90;;;;;;4993174;28;20038;-78
2023/07/04 01:07:00;;;;;;;8.50;2.00;;;12.50;99.90;;;;;;4992899;28;20533;-77
2023/07/04 01:09:51;;;;;;;5.45;2.70;;;12.50;99.90;;;;;;4993205;28;20042;-77
2023/07/04 01:12:39;;;;;;;8.80;2.25;;;12.40;99.90;;;;;;4993134;28;20108;-76
2023/07/04 01:15:25;;;;;;;7.25;2.38;;;12.40;99.90;;;;;;4993095;28;20097;-77
2023/07/04 01:18:11;;;;;;;8.05;2.30;;;12.40;99.90;;;;;;4992262;28;20090;-77
2023/07/04 01:21:00;;;;;;;13.52;2.75;;;12.50;99.90;;;;;;4992113;28;20050;-78
2023/07/04 01:24:07;;;;;;;5.97;2.03;;;12.60;99.90;;;;;;4994785;28;20052;-79
2023/07/04 01:26:53;;;;;;;8.75;2.72;;;12.60;99.90;;;;;;4992937;28;20046;-77
2023/07/04 01:29:40;;;;;;;8.43;2.72;;;12.60;99.90;;;;;;4992618;28;20387;-78
2023/07/04 01:32:28;;;;;;;9.23;2.25;;;12.70;99.90;;;;;;4992359;28;20133;-77
2023/07/04 01:35:14;;;;;;;13.25;2.53;;;12.70;99.90;;;;;;4993691;28;20050;-77
2023/07/04 01:38:01;;;;;;;9.77;2.60;;;12.80;99.90;;;;;;4993860;28;20050;-78
2023/07/04 01:40:47;;;;;;;10.60;2.28;;;12.80;99.90;;;;;;4992846;28;20404;-79
2023/07/04 01:43:33;;;;;;;14.02;3.17;;;12.80;99.90;;;;;;4993731;28;20082;-78
2023/07/04 01:46:20;;;;;;;19.98;3.08;;;12.70;99.90;;;;;;4991306;28;20051;-79
2023/07/04 01:49:06;;;;;;;19.73;4.03;;;12.70;99.90;;;;;;4992592;28;20056;-79
2023/07/04 01:51:52;;;;;;;16.50;2.13;;;12.80;99.90;;;;;;4991718;28;20057;-78
2023/07/04 01:54:38;;;;;;;9.68;1.92;;;12.80;99.90;;;;;;4978006;28;20153;-78
2023/07/04 01:57:25;;;;;;;15.73;3.20;;;12.80;99.90;;;;;;4990011;28;20527;-77
2023/07/04 02:00:12;;;;;;;9.82;1.67;;;12.80;99.90;;;;;;4993796;28;20053;-79
2023/07/04 02:02:59;;;;;;;9.43;2.28;;;12.90;99.90;;;;;;4993451;28;20053;-78
2023/07/04 02:05:46;;;;;;;8.30;1.52;;;12.80;99.90;;;;;;4991860;28;20065;-78
2023/07/04 02:08:33;;;;;;;8.82;1.67;;;12.90;99.90;;;;;;4992398;28;20167;-78
2023/07/04 02:11:20;;;;;;;11.10;2.33;;;12.90;99.90;;;;;;4992441;28;20043;-77
2023/07/04 02:14:06;;;;;;;11.10;1.90;;;13.00;99.90;;;;;;4993377;28;20521;-79
2023/07/04 02:16:53;;;;;;;9.75;1.98;;;13.00;99.90;;;;;;4991947;28;20058;-78
2023/07/04 02:19:39;;;;;;;12.15;2.22;;;13.00;99.90;;;;;;4979107;28;20042;-79
2023/07/04 02:22:25;;;;;;;9.15;1.80;;;13.00;99.90;;;;;;4991685;28;20054;-79
2023/07/04 02:25:11;;;;;;;6.60;2.22;;;13.00;99.90;;;;;;4991892;28;20410;-78
2023/07/04 02:27:57;;;;;;;9.63;2.08;;;13.00;99.90;;;;;;4991449;28;20178;-78
2023/07/04 02:30:53;;;;;;;14.13;2.00;;;13.00;99.90;;;;;;4978720;28;20118;-78
2023/07/04 02:33:39;;;;;;;8.57;1.48;;;12.90;99.90;;;;;;4990131;28;20054;-77
2023/07/04 02:36:25;;;;;;;10.40;2.25;;;12.90;99.90;;;;;;4992797;28;20057;-78
2023/07/04 02:39:12;;;;;;;10.70;1.92;;;12.90;99.90;;;;;;4991853;28;20137;-78
2023/07/04 02:41:58;;;;;;;12.23;1.70;;;12.80;99.90;;;;;;4991950;28;20065;-78
2023/07/04 02:44:44;;;;;;;12.55;2.30;;;12.80;99.90;;;;;;4989733;28;20069;-78
2023/07/04 02:47:30;;;;;;;7.68;1.40;;;12.80;99.90;;;;;;4990881;28;20100;-79
2023/07/04 02:50:16;;;;;;;9.90;2.42;;;12.80;99.90;;;;;;4989960;28;20427;-77
2023/07/04 02:53:03;;;;;;;10.52;2.08;;;12.80;99.90;;;;;;4993099;28;20177;-78
2023/07/04 02:55:50;;;;;;;9.65;2.17;;;12.80;99.90;;;;;;4991070;28;20483;-78
2023/07/04 02:58:37;;;;;;;9.50;2.15;;;12.70;99.90;;;;;;4991059;28;20058;-77
2023/07/04 03:01:23;;;;;;;6.13;1.80;;;12.80;99.90;;;;;;4991135;28;20061;-78
2023/07/04 03:04:09;;;;;;;9.13;2.08;;;12.70;99.90;;;;;;4990489;28;20495;-77
2023/07/04 03:06:55;;;;;;;8.90;1.98;;;12.80;99.90;;;;;;4990866;28;20053;-78
2023/07/04 03:09:41;;;;;;;9.88;1.70;;;12.80;99.90;;;;;;4989510;28;20515;-77
2023/07/04 03:12:27;;;;;;;8.20;2.08;;;12.90;99.90;;;;;;4992617;28;20097;-77
2023/07/04 03:15:14;;;;;;;9.73;2.05;;;12.90;99.90;;;;;;4975822;28;20054;-78
2023/07/04 03:18:01;;;;;;;6.38;1.50;;;12.90;99.90;;;;;;4977519;28;20042;-78
2023/07/04 03:20:47;;;;;;;4.55;1.40;;;12.90;99.90;;;;;;4990911;28;20053;-78
2023/07/04 03:23:34;;;;;;;7.53;1.55;;;12.90;99.90;;;;;;4990578;28;20042;-77
2023/07/04 03:26:20;;;;;;;5.95;1.70;;;12.90;99.90;;;;;;4990804;28;20050;-78
2023/07/04 03:29:07;;;;;;;8.45;2.25;;;12.90;99.90;;;;;;4990190;28;20057;-78
2023/07/04 03:31:53;;;;;;;10.13;1.63;;;12.90;99.90;;;;;;4990010;28;20046;-78
2023/07/04 03:34:39;;;;;;;11.32;2.13;;;12.80;99.90;;;;;;4991833;28;20085;-78
2023/07/04 03:37:25;;;;;;;7.72;1.63;;;12.80;99.90;;;;;;4988806;28;20050;-78
2023/07/04 03:40:12;;;;;;;8.98;1.75;;;12.80;99.90;;;;;;4977429;28;20100;-78
2023/07/04 03:42:58;;;;;;;7.22;1.83;;;12.80;99.90;;;;;;4989165;28;20133;-78
2023/07/04 03:45:45;;;;;;;11.15;1.70;;;12.80;99.90;;;;;;4989956;28;20054;-78
2023/07/04 03:48:32;;;;;;;7.78;1.63;;;12.70;99.90;;;;;;4990382;28;20770;-78
2023/07/04 03:51:18;;;;;;;9.13;1.42;;;12.70;99.90;;;;;;4989460;28;20057;-80
2023/07/04 03:54:04;;;;;;;7.50;2.72;;;12.70;99.90;;;;;;4988626;28;20181;-80
2023/07/04 03:56:51;;;;;;;6.32;1.40;;;12.70;99.90;;;;;;4989865;28;20121;-78
2023/07/04 03:59:37;;;;;;;5.97;1.35;;;12.60;99.90;;;;;;4990294;28;20053;-78
2023/07/04 04:02:23;;;;;;;6.88;1.20;;;12.70;99.90;;;;;;4991481;28;20058;-77
2023/07/04 04:05:11;;;;;;;6.20;1.27;;;12.70;99.90;;;;;;4989106;28;20054;-77
2023/07/04 04:07:57;;;;;;;6.50;1.42;;;12.70;99.90;;;;;;4989690;28;20066;-79
2023/07/04 04:11:03;;;;;;;6.28;1.20;;;12.70;99.90;;;;;;4991855;28;20053;-79
2023/07/04 04:14:09;;;;;;;12.27;2.20;;;12.70;99.90;;;;;;4991507;28;20104;-79
2023/07/04 04:16:56;;;;;;;6.20;1.05;;;12.70;99.90;;;;;;4991265;28;20050;-78
2023/07/04 04:19:42;;;;;;;14.10;1.52;;;12.70;99.90;;;;;;4991335;28;20046;-78
2023/07/04 04:22:28;;;;;;;8.63;1.30;;;12.80;99.90;;;;;;4991467;28;20046;-79
2023/07/04 04:25:15;;;;;;;6.38;1.30;;;12.80;99.90;;;;;;4988487;28;20058;-80
2023/07/04 04:28:03;;;;;;;9.00;1.67;;;12.90;99.90;;;;;;4991668;28;20092;-78
2023/07/04 04:30:49;;;;;;;3.65;1.10;;;12.90;99.90;;;;;;4989299;28;20050;-78
2023/07/04 04:33:35;;;;;;;5.93;1.02;;;13.00;99.90;;;;;;4989431;28;20401;-80
2023/07/04 04:36:22;;;;;;;5.70;1.10;;;13.10;99.90;;;;;;4989297;28;20499;-79
2023/07/04 04:39:08;;;;;;;7.35;1.30;;;13.10;99.90;;;;;;4989473;28;20542;-79
2023/07/04 04:41:54;;;;;;;2.83;0.93;;;13.10;99.90;;;;;;4990897;28;20046;-78
2023/07/04 04:44:41;;;;;;;3.90;1.23;;;13.20;99.90;;;;;;4975045;28;20112;-77
2023/07/04 04:47:32;;;;;;;7.55;0.95;;;13.30;99.90;;;;;;4988091;28;20527;-80
2023/07/04 04:50:23;;;;;;;6.82;1.92;;;13.30;99.90;;;;;;4987982;28;20073;-79
2023/07/04 04:53:14;;;;;;;5.78;1.55;;;13.40;99.90;;;;;;4988072;28;20089;-79
2023/07/04 04:56:00;;;;;;;7.20;1.40;;;13.40;99.90;;;;;;4988739;28;20058;-79
2023/07/04 04:58:46;;;;;;;3.63;1.20;;;13.50;99.90;;;;;;4989211;28;20116;-78
2023/07/04 05:01:36;;;;;;;11.75;1.30;;;13.60;99.90;;;;;;4987980;28;20065;-80
2023/07/04 05:04:23;;;;;;;6.95;1.67;;;13.60;99.90;;;;;;4987408;28;20065;-78
2023/07/04 05:07:12;;;;;;;7.53;1.20;;;13.70;99.90;;;;;;4990010;28;20050;-78
2023/07/04 05:09:58;;;;;;;6.75;1.52;;;13.70;99.90;;;;;;4989528;28;20047;-79
2023/07/04 05:12:44;;;;;;;7.60;1.60;;;13.80;99.90;;;;;;4988605;28;20054;-78
2023/07/04 05:15:30;;;;;;;5.60;2.08;;;13.90;99.90;;;;;;4987708;28;20491;-78
2023/07/04 05:18:16;;;;;;;7.43;1.30;;;14.00;99.90;;;;;;4991165;28;20117;-78
2023/07/04 05:21:09;;;;;;;4.88;1.65;;;14.00;99.90;;;;;;4989689;28;20050;-77
2023/07/04 05:23:55;;;;;;;10.15;1.67;;;14.10;99.90;;;;;;4987645;28;20062;-77
2023/07/04 05:26:41;;;;;;;5.40;1.27;;;14.20;99.90;;;;;;4988631;28;20506;-76
2023/07/04 05:29:27;;;;;;;9.63;1.50;;;14.20;99.90;;;;;;4990518;28;20133;-76
2023/07/04 05:32:13;;;;;;;5.97;1.40;;;14.30;99.90;;;;;;4989875;28;20558;-78
2023/07/04 05:35:00;;;;;;;7.22;2.13;;;14.30;99.90;;;;;;4993711;28;20050;-77
2023/07/04 05:37:46;;;;;;;11.23;1.55;;;14.30;99.90;;;;;;4979379;28;20054;-77
2023/07/04 05:40:32;;;;;;;9.55;1.75;;;14.50;99.90;;;;;;4992543;28;20112;-77
2023/07/04 05:43:18;;;;;;;8.82;1.30;;;14.50;99.90;;;;;;5458704;23;20509;-79
2023/07/04 05:46:05;;;;;;;7.43;1.55;;;14.70;99.90;;;;;;4993137;28;20042;-78
2023/07/04 05:48:52;;;;;;;8.25;1.70;;;14.90;99.90;;;;;;4992377;28;20061;-78
2023/07/04 05:51:38;;;;;;;7.65;1.50;;;15.00;99.90;;;;;;4993564;28;20050;-79
2023/07/04 05:54:24;;;;;;;11.43;2.38;;;15.10;99.90;;;;;;4990937;28;20062;-77
2023/07/04 05:57:10;;;;;;;7.05;1.83;;;15.20;99.90;;;;;;4992387;28;20084;-79
2023/07/04 05:59:56;;;;;;;6.68;1.55;;;15.20;99.90;;;;;;4992607;28;20054;-78
2023/07/04 06:02:42;;;;;;;10.90;2.08;;;15.30;99.90;;;;;;4992721;28;20083;-78
2023/07/04 06:05:28;;;;;;;7.97;1.98;;;15.30;99.90;;;;;;4992761;28;20060;-77
2023/07/04 06:08:14;;;;;;;8.30;1.50;;;15.50;99.90;;;;;;4993015;28;20611;-77
2023/07/04 06:11:02;;;;;;;8.38;1.80;;;15.60;99.90;;;;;;4991574;28;20104;-79
2023/07/04 06:13:49;;;;;;;9.13;1.60;;;15.70;99.90;;;;;;4978297;28;20046;-78
2023/07/04 06:16:35;;;;;;;6.32;1.30;;;15.80;99.90;;;;;;4990971;28;20057;-79
2023/07/04 06:19:22;;;;;;;7.20;1.10;;;16.00;99.90;;;;;;4992623;28;20410;-79
2023/07/04 06:22:11;;;;;;;10.82;1.75;;;16.10;99.90;;;;;;4992432;28;20045;-78
2023/07/04 06:24:57;;;;;;;13.00;1.65;;;16.20;99.90;;;;;;4990625;28;20050;-78
2023/07/04 06:27:44;;;;;;;7.05;1.20;;;16.30;99.90;;;;;;4991708;28;20058;-78
2023/07/04 06:30:34;;;;;;;7.40;1.40;;;16.40;99.90;;;;;;4963522;28;20072;-80
2023/07/04 06:33:21;;;;;;;7.38;1.33;;;16.50;99.90;;;;;;4991090;28;20057;-80
2023/07/04 06:36:09;;;;;;;4.38;1.38;;;16.50;99.90;;;;;;4990785;28;20175;-79
2023/07/04 06:39:03;;;;;;;7.68;1.20;;;16.60;99.90;;;;;;4992218;28;20461;-80
2023/07/04 06:41:49;;;;;;;9.27;2.13;;;16.50;99.90;;;;;;4992737;28;20460;-79
2023/07/04 06:44:35;;;;;;;4.03;0.85;;;16.50;99.90;;;;;;4989530;28;20069;-79
2023/07/04 06:47:22;;;;;;;4.13;1.10;;;16.60;99.90;;;;;;4991699;28;20061;-79
2023/07/04 06:50:09;;;;;;;5.88;1.15;;;16.80;99.90;;;;;;4990896;28;20046;-77
2023/07/04 06:52:55;;;;;;;6.18;1.38;;;16.80;99.90;;;;;;4991942;28;20054;-77
2023/07/04 06:55:41;;;;;;;6.25;1.30;;;16.70;99.90;;;;;;4990167;28;20101;-76
2023/07/04 06:58:27;;;;;;;5.10;1.45;;;16.60;99.90;;;;;;4990274;28;20053;-78
2023/07/04 07:01:13;;;;;;;5.25;1.38;;;16.70;99.90;;;;;;4991421;28;20289;-78
2023/07/04 07:03:59;;;;;;;11.48;2.00;;;16.90;99.90;;;;;;4990015;28;20054;-78
2023/07/04 07:06:46;;;;;;;8.98;1.35;;;17.20;99.90;;;;;;4990905;28;20058;-78
2023/07/04 07:09:36;;;;;;;5.47;1.13;;;17.20;99.90;;;;;;4991668;28;20046;-78
2023/07/04 07:12:23;;;;;;;9.40;1.10;;;17.30;99.90;;;;;;4990202;28;20054;-79
2023/07/04 07:15:09;;;;;;;14.15;1.55;;;17.50;99.90;;;;;;4991494;28;20050;-79
2023/07/04 07:17:58;;;;;;;8.57;1.90;;;17.70;99.90;;;;;;4991382;28;20637;-80
2023/07/04 07:20:44;;;;;;;8.50;1.27;;;17.80;99.90;;;;;;4976851;28;20054;-78
2023/07/04 07:23:32;;;;;;;5.63;1.08;;;18.00;99.90;;;;;;4991321;28;20050;-80
2023/07/04 07:26:21;;;;;;;5.85;1.00;;;17.80;99.90;;;;;;4990350;28;20141;-81
2023/07/04 07:29:07;;;;;;;8.20;1.27;;;17.80;99.90;;;;;;4990899;28;20525;-80
2023/07/04 07:31:53;;;;;;;7.43;1.00;;;17.80;99.90;;;;;;4989531;28;20058;-79
2023/07/04 07:34:39;;;;;;;6.20;1.33;;;17.90;99.90;;;;;;4990867;28;20482;-80
2023/07/04 07:37:26;;;;;;;6.03;1.60;;;18.10;99.90;;;;;;4989810;28;20046;-81
2023/07/04 07:40:12;;;;;;;8.77;1.60;;;18.30;99.90;;;;;;4990595;28;20057;-80
2023/07/04 07:42:58;;;;;;;8.82;1.42;;;18.40;99.90;;;;;;4989734;28;20081;-79
2023/07/04 07:45:46;;;;;;;6.68;1.17;;;18.40;99.90;;;;;;4990720;28;20086;-79
2023/07/04 07:48:32;;;;;;;5.30;1.17;;;18.10;99.90;;;;;;4990142;28;20494;-79
2023/07/04 07:51:19;;;;;;;11.10;2.42;;;17.80;99.90;;;;;;4990589;28;20056;-80
2023/07/04 07:54:10;;;;;;;6.00;1.20;;;17.60;99.90;;;;;;4990523;28;20082;-79
2023/07/04 07:56:56;;;;;;;6.32;1.30;;;17.80;99.90;;;;;;4990393;28;20057;-81
2023/07/04 07:59:42;;;;;;;16.05;1.88;;;18.30;99.90;;;;;;4990470;28;20042;-82
2023/07/04 08:02:28;;;;;;;5.55;1.45;;;18.50;99.90;;;;;;4990194;28;20770;-81
2023/07/04 08:05:14;;;;;;;8.65;1.58;;;18.60;99.90;;;;;;4990369;28;20046;-81
2023/07/04 08:08:00;;;;;;;8.10;1.42;;;18.40;99.90;;;;;;4988929;28;20488;-81
2023/07/04 08:10:47;;;;;;;8.38;1.65;;;18.30;99.90;;;;;;4990503;28;20093;-81
2023/07/04 08:13:33;;;;;;;7.50;1.58;;;18.40;99.90;;;;;;4990353;28;20050;-80
2023/07/04 08:16:23;;;;;;;8.85;1.95;;;18.80;99.90;;;;;;4990724;28;20136;-80
2023/07/04 08:19:10;;;;;;;5.22;1.25;;;18.90;99.90;;;;;;4990281;28;20054;-81
2023/07/04 08:21:57;;;;;;;4.35;1.48;;;19.10;99.90;;;;;;4990516;28;20042;-81
2023/07/04 08:24:43;;;;;;;9.48;1.20;;;19.20;99.30;;;;;;4990811;28;20133;-81
2023/07/04 08:27:29;;;;;;;6.43;1.17;;;19.40;98.50;;;;;;4990298;28;20046;-79
2023/07/04 08:30:15;;;;;;;4.22;1.33;;;19.10;98.60;;;;;;4988664;28;20050;-81
2023/07/04 08:33:02;;;;;;;10.13;1.27;;;18.90;98.80;;;;;;4990194;28;20133;-80
2023/07/04 08:35:54;;;;;;;8.15;1.75;;;18.60;99.10;;;;;;4989597;28;20054;-81
2023/07/04 08:38:41;;;;;;;8.95;1.60;;;18.50;99.10;;;;;;4989974;28;20058;-82
2023/07/04 08:41:53;;;;;;;9.02;1.58;;;18.70;99.70;;;;;;4990315;28;20061;-80
2023/07/04 08:44:43;;;;;;;7.57;1.98;;;18.60;98.40;;;;;;4989608;28;20530;-80
2023/07/04 08:47:31;;;;;;;8.20;1.27;;;18.40;99.70;;;;;;4989835;28;20447;-79
2023/07/04 08:50:31;;;;;;;13.30;1.95;;;18.10;99.90;;;;;;4989433;28;20086;-81
2023/07/04 08:53:24;;;;;;;8.98;1.58;;;18.50;99.90;;;;;;4990164;28;20081;-79
2023/07/04 08:56:21;;;;;;;7.10;1.90;;;19.00;99.90;;;;;;4990428;28;20086;-80
2023/07/04 08:59:24;;;;;;;8.68;1.88;;;19.40;99.30;;;;;;4989594;28;20097;-79
2023/07/04 09:02:41;;;;;;;10.23;1.73;;;19.20;98.80;;;;;;4987837;28;20043;-80
2023/07/04 09:05:53;;;;;;;8.73;1.67;;;18.70;98.00;;;;;;4989713;28;20050;-78
2023/07/04 09:08:48;;;;;;;11.15;1.48;;;18.80;99.30;;;;;;4993505;28;20814;-79
2023/07/04 09:11:34;;;;;;;7.15;1.23;;;18.90;99.30;;;;;;4993345;28;20086;-79
2023/07/04 09:14:33;;;;;;;5.85;1.70;;;19.10;98.50;;;;;;4992310;28;20062;-80
2023/07/04 09:18:05;;;;;;;9.25;1.65;;;19.30;98.50;;;;;;4993633;28;20050;-81
2023/07/04 09:21:13;;;;;;;5.90;1.38;;;19.00;97.20;;;;;;4988432;28;20181;-80
2023/07/04 09:24:04;;;;;;;4.22;1.25;;;19.10;98.30;;;;;;4993848;28;20134;-81
2023/07/04 09:26:53;;;;;;;5.50;1.48;;;19.40;98.10;;;;;;4993888;28;20054;-80
2023/07/04 09:29:39;;;;;;;8.93;1.17;;;19.30;97.60;;;;;;4993448;28;20546;-80
2023/07/04 09:32:25;;;;;;;4.78;1.08;;;19.40;98.00;;;;;;4993463;28;20587;-80
2023/07/04 09:35:13;;;;;;;9.57;1.40;;;19.70;96.80;;;;;;4992123;28;20050;-78
2023/07/04 09:38:01;;;;;;;5.13;1.13;;;19.80;96.40;;;;;;4992962;28;20047;-81
2023/07/04 09:40:54;;;;;;;7.38;1.30;;;20.20;96.60;;;;;;4992206;28;20469;-80
2023/07/04 09:43:40;;;;;;;4.60;1.10;;;20.60;96.50;;;;;;4992883;28;20058;-81
2023/07/04 09:46:31;;;;;;;8.68;1.67;;;20.30;96.30;;;;;;4992704;28;20046;-80
2023/07/04 09:49:26;;;;;;;10.25;2.00;;;20.10;96.80;;;;;;4993194;28;20450;-80
2023/07/04 09:52:18;;;;;;;8.27;1.83;;;19.80;97.60;;;;;;4992873;28;20105;-80
2023/07/04 09:55:13;;;;;;;7.82;1.50;;;19.90;96.60;;;;;;4992562;28;20062;-80
2023/07/04 09:58:15;;;;;;;6.10;1.35;;;19.90;96.30;;;;;;4992426;28;20144;-81
2023/07/04 10:01:08;;;;;;;7.43;1.33;;;20.20;95.90;;;;;;4992892;28;20042;-79
2023/07/04 10:04:05;;;;;;;6.13;1.42;;;20.20;94.60;;;;;;4992603;28;20066;-79
2023/07/04 10:06:53;;;;;;;6.63;1.20;;;20.20;95.50;;;;;;4992335;28;20160;-80
2023/07/04 10:09:52;;;;;;;8.35;1.55;;;20.50;95.40;;;;;;4993098;28;20141;-80
2023/07/04 10:12:44;;;;;;;7.97;1.85;;;20.50;95.00;;;;;;4992355;28;20513;-80
2023/07/04 10:15:39;;;;;;;13.63;1.90;;;20.70;95.20;;;;;;4992753;28;20474;-80
2023/07/04 10:18:31;;;;;;;4.05;0.95;;;20.90;95.40;;;;;;4991685;28;20046;-81
2023/07/04 10:21:18;;;;;;;9.23;1.80;;;21.10;94.40;;;;;;4993314;28;20089;-80
2023/07/04 10:24:07;;;;;;;10.55;2.58;;;21.40;94.40;;;;;;4992670;28;20058;-80
2023/07/04 10:27:02;;;;;;;7.13;2.38;;;21.70;94.60;;;;;;4992319;28;20144;-81
2023/07/04 10:29:55;;;;;;;8.88;1.00;;;21.90;94.70;;;;;;4990240;28;20062;-79
2023/07/04 10:32:47;;;;;;;11.52;1.95;;;21.90;93.50;;;;;;4992148;28;20054;-80
2023/07/04 10:35:36;;;;;;;5.70;1.10;;;21.90;93.40;;;;;;4991706;28;20620;-80
2023/07/04 10:38:41;;;;;;;5.90;1.02;;;21.90;92.70;;;;;;4991869;28;20042;-80
2023/07/04 10:41:40;;;;;;;5.85;1.60;;;21.90;90.80;;;;;;4992218;28;20050;-80
2023/07/04 10:44:31;;;;;;;6.80;1.08;;;21.00;91.50;;;;;;4992180;28;20061;-80
2023/07/04 10:47:29;;;;;;;5.63;1.20;;;21.10;93.10;;;;;;4991411;28;20050;-80
2023/07/04 10:50:38;;;;;;;6.03;1.17;;;21.30;92.90;;;;;;4991921;28;20097;-80
2023/07/04 10:53:24;;;;;;;12.15;1.27;;;21.30;92.70;;;;;;4990733;28;20073;-80
2023/07/04 10:56:21;;;;;;;5.20;1.42;;;21.60;92.50;;;;;;4991576;28;20047;-80
2023/07/04 10:59:16;;;;;;;7.45;1.40;;;21.90;92.80;;;;;;4991690;28;20068;-80
2023/07/04 11:02:26;;;;;;;9.13;1.55;;;22.20;91.70;;;;;;4991438;28;20197;-79
2023/07/04 11:05:24;;;;;;;8.10;1.42;;;22.30;91.90;;;;;;4991073;28;20048;-80
2023/07/04 11:08:19;;;;;;;6.60;1.33;;;22.60;91.80;;;;;;4990934;28;20079;-81
2023/07/04 11:11:12;;;;;;;6.22;1.10;;;22.70;90.70;;;;;;4991745;28;20050;-80
2023/07/04 11:14:06;;;;;;;6.97;0.90;;;22.40;90.90;;;;;;4991132;28;20529;-80
2023/07/04 11:16:54;;;;;;;4.72;0.98;;;22.60;90.70;;;;;;4989065;28;20076;-79
2023/07/04 11:19:55;;;;;;;4.40;1.00;;;22.70;89.90;;;;;;4991109;28;20038;-79
2023/07/04 11:22:55;;;;;;;6.57;1.08;;;22.30;88.20;;;;;;4989548;28;20058;-80
2023/07/04 11:25:41;;;;;;;4.90;0.90;;;22.30;90.20;;;;;;4991570;28;20050;-79
2023/07/04 11:28:36;;;;;;;5.03;1.27;;;22.30;89.00;;;;;;4991536;28;20046;-80
2023/07/04 11:31:27;;;;;;;;;;;22.50;91.00;;;;;;4991587;28;20050;-80
2023/07/04 11:34:13;;;;;;;8.93;1.35;;;22.70;90.30;;;;;;4992258;28;19933;-80
2023/07/04 11:37:00;;;;;;;6.38;1.15;;;23.30;91.10;;;;;;4991452;28;20133;-80
2023/07/04 11:39:54;;;;;;;5.05;1.10;;;23.70;90.40;;;;;;4990923;28;20046;-79
2023/07/04 11:42:47;;;;;;;7.45;1.60;;;22.90;88.10;;;;;;4989179;28;20058;-79
2023/07/04 11:45:38;;;;;;;5.65;1.17;;;22.20;90.10;;;;;;4990717;28;20057;-78
2023/07/04 11:48:28;;;;;;;6.20;1.30;;;22.10;90.90;;;;;;4991092;28;20062;-78
2023/07/04 11:51:15;;;;;;;6.40;1.35;;;22.10;91.00;;;;;;4990828;28;20073;-80
2023/07/04 11:54:06;;;;;;;4.40;1.55;;;22.30;91.50;;;;;;4990148;28;20144;-80
2023/07/04 11:56:52;;;;;;;5.63;0.95;;;22.60;91.60;;;;;;4990936;28;20109;-79
2023/07/04 11:59:43;;;;;;;7.05;1.65;;;22.80;91.30;;;;;;4991081;28;20054;-80
2023/07/04 12:02:30;;;;;;;8.07;1.30;;;22.80;90.90;;;;;;4990846;28;20068;-79
2023/07/04 12:05:30;;;;;;;7.13;1.10;;;22.80;90.60;;;;;;4990741;28;20058;-78
2023/07/04 12:08:50;;;;;;;7.78;1.08;;;22.40;89.20;;;;;;4990397;28;20056;-78
2023/07/04 12:11:46;;;;;;;6.95;1.35;;;22.20;90.20;;;;;;4989105;28;20141;-79
2023/07/04 12:14:36;;;;;;;7.45;1.00;;;22.00;91.10;;;;;;4990591;28;20050;-80
2023/07/04 12:17:24;;;;;;;8.70;1.80;;;22.10;91.50;;;;;;4990960;28;20046;-81
2023/07/04 12:20:16;;;;;;;7.43;1.25;;;22.00;91.50;;;;;;4990669;28;20101;-81
2023/07/04 12:23:09;;;;;;;10.52;1.45;;;22.50;91.10;;;;;;4990987;28;20486;-80
2023/07/04 12:25:58;;;;;;;5.85;1.48;;;22.30;90.80;;;;;;4976166;28;20092;-79
2023/07/04 12:28:46;;;;;;;8.00;1.25;;;21.90;91.00;;;;;;4990545;28;20530;-80
2023/07/04 12:31:32;;;;;;;4.80;0.88;;;22.30;91.00;;;;;;4990340;28;20046;-80
2023/07/04 12:34:26;;;;;;;7.50;1.40;;;22.50;90.80;;;;;;4989901;28;20499;-79
2023/07/04 12:37:16;;;;;;;4.10;1.03;;;23.00;90.20;;;;;;4990611;28;20061;-80
2023/07/04 12:40:04;;;;;;;6.90;1.52;;;23.30;91.00;;;;;;4989867;28;20096;-80
2023/07/04 12:42:51;;;;;;;6.30;1.20;;;23.20;90.50;;;;;;4995425;28;20065;-80
2023/07/04 12:45:39;;;;;;;7.80;1.35;;;22.90;90.40;;;;;;4995759;28;20050;-80
2023/07/04 12:48:25;;;;;;;6.35;1.30;;;23.20;90.30;;;;;;4996650;28;20136;-78
2023/07/04 12:51:15;;;;;;;8.13;1.48;;;23.30;90.00;;;;;;4996225;28;20042;-82
2023/07/04 12:54:03;;;;;;;8.07;1.73;;;23.10;88.90;;;;;;4995936;28;20062;-81
2023/07/04 12:56:49;;;;;;;5.68;1.40;;;22.50;89.70;;;;;;4996017;28;20065;-80
2023/07/04 12:59:37;;;;;;;6.65;1.25;;;22.70;89.80;;;;;;4995845;28;20494;-80
2023/07/04 13:02:32;;;;;;;7.32;1.50;;;23.00;89.80;;;;;;4996830;28;20203;-80
2023/07/04 13:05:19;;;;;;;7.40;1.27;;;23.00;90.20;;;;;;4996229;28;20054;-78
2023/07/04 13:08:13;;;;;;;5.82;1.40;;;23.40;89.70;;;;;;4995369;28;20069;-79
2023/07/04 13:11:00;;;;;;;7.63;1.42;;;23.30;88.50;;;;;;4996809;28;20058;-79
2023/07/04 13:13:48;;;;;;;5.55;1.38;;;22.70;88.60;;;;;;4996891;28;20050;-79
2023/07/04 13:16:35;;;;;;;7.10;1.63;;;22.60;89.90;;;;;;4996772;28;20058;-79
2023/07/04 13:19:21;;;;;;;7.03;1.88;;;22.40;90.20;;;;;;4996285;28;20042;-80
2023/07/04 13:22:16;;;;;;;9.02;1.27;;;22.90;90.30;;;;;;4994971;28;20674;-79
2023/07/04 13:25:31;;;;;;;9.20;1.70;;;23.40;90.60;;;;;;4996417;28;20046;-81
2023/07/04 13:28:28;;;;;;;;;;;23.00;89.50;;;;;;4996386;28;20499;-81
2023/07/04 13:31:26;;;;;;;7.20;1.48;;;22.90;90.90;;;;;;4996769;28;19934;-79
2023/07/04 13:34:29;;;;;;;6.60;1.30;;;22.70;90.30;;;;;;4995789;28;20578;-80
2023/07/04 13:37:16;;;;;;;8.48;1.52;;;22.20;90.30;;;;;;4994650;28;20085;-79
2023/07/04 13:40:02;;;;;;;8.45;1.70;;;22.10;90.90;;;;;;4995044;28;20047;-80
2023/07/04 13:43:05;;;;;;;8.60;1.83;;;21.80;91.30;;;;;;4994896;28;20094;-80
2023/07/04 13:45:51;;;;;;;6.88;1.63;;;22.10;91.20;;;;;;4994221;28;20060;-79
2023/07/04 13:48:37;;;;;;;10.20;1.42;;;22.40;91.50;;;;;;4994723;28;20438;-79
2023/07/04 13:51:26;;;;;;;8.27;1.67;;;22.50;91.70;;;;;;4980117;28;20050;-80
2023/07/04 13:54:12;;;;;;;8.93;2.38;;;23.10;91.70;;;;;;4993654;28;20042;-81
2023/07/04 13:57:00;;;;;;;8.55;1.98;;;23.30;91.40;;;;;;4991363;28;20060;-79
2023/07/04 13:59:48;;;;;;;8.13;1.50;;;22.90;90.80;;;;;;4993134;28;20054;-78
2023/07/04 14:02:33;;;;;;;8.23;1.63;;;23.00;90.40;;;;;;4991569;28;20498;-79
2023/07/04 14:05:20;;;;;;;3.60;1.13;;;23.10;90.40;;;;;;4991569;28;20184;-81
2023/07/04 14:08:07;;;;;;;8.75;1.75;;;23.30;90.40;;;;;;4991668;28;20398;-81
2023/07/04 14:11:00;;;;;;;7.07;1.75;;;23.20;90.30;;;;;;4992396;28;20506;-80
2023/07/04 14:13:48;;;;;;;11.80;1.80;;;22.80;90.40;;;;;;4990477;28;20058;-79
2023/07/04 14:16:34;;;;;;;12.05;2.08;;;23.30;90.50;;;;;;4992841;28;20097;-78
2023/07/04 14:19:20;;;;;;;6.75;1.63;;;23.70;90.40;;;;;;4991125;28;20054;-80
2023/07/04 14:22:06;;;;;;;8.70;1.67;;;24.10;90.40;;;;;;4990869;28;20560;-81
2023/07/04 14:24:52;;;;;;;10.30;1.63;;;24.00;90.10;;;;;;4990950;28;20140;-79
2023/07/04 14:27:38;;;;;;;10.00;1.77;;;23.60;88.20;;;;;;4991959;28;20507;-80
2023/07/04 14:30:24;;;;;;;9.05;2.10;;;23.80;88.90;;;;;;4978123;28;20549;-79
2023/07/04 14:33:10;;;;;;;10.57;1.40;;;23.20;89.10;;;;;;4992180;28;20061;-81
2023/07/04 14:35:57;;;;;;;8.18;1.77;;;23.30;89.70;;;;;;4990366;28;20104;-82
2023/07/04 14:38:43;;;;;;;5.57;1.25;;;23.30;89.60;;;;;;4992481;28;20050;-78
2023/07/04 14:41:33;;;;;;;6.25;1.60;;;23.70;88.70;;;;;;4991408;28;20054;-79